sensor_id;sensor_type;location;lat;lon;timestamp;P1;durP1;ratioP1;P2;durP2;ratioP2
30617;SDS011;17384;51.214;9.202;2023-05-07T00:02:09;32.30;;;19.35;;
30617;SDS011;17384;51.214;9.202;2023-05-07T00:04:34;34.58;;;21.60;;
30617;SDS011;17384;51.214;9.202;2023-05-07T00:07:02;34.83;;;22.08;;
30617;SDS011;17384;51.214;9.202;2023-05-07T00:09:28;28.75;;;20.35;;
30617;SDS011;17384;51.214;9.202;2023-05-07T00:11:53;28.85;;;19.05;;
30617;SDS011;17384;51.214;9.202;2023-05-07T00:14:19;29.27;;;21.20;;
30617;SDS011;17384;51.214;9.202;2023-05-07T00:16:45;34.53;;;21.48;;
30617;SDS011;17384;51.214;9.202;2023-05-07T00:19:10;33.28;;;21.33;;
30617;SDS011;17384;51.214;9.202;2023-05-07T00:21:36;31.40;;;21.33;;
30617;SDS011;17384;51.214;9.202;2023-05-07T00:24:01;32.90;;;22.17;;
30617;SDS011;17384;51.214;9.202;2023-05-07T00:26:26;35.63;;;23.60;;
30617;SDS011;17384;51.214;9.202;2023-05-07T00:28:52;38.10;;;23.38;;
30617;SDS011;17384;51.214;9.202;2023-05-07T00:31:17;37.08;;;23.05;;
30617;SDS011;17384;51.214;9.202;2023-05-07T00:33:43;33.00;;;23.90;;
30617;SDS011;17384;51.214;9.202;2023-05-07T00:36:08;41.22;;;26.00;;
30617;SDS011;17384;51.214;9.202;2023-05-07T00:38:34;42.22;;;25.85;;
30617;SDS011;17384;51.214;9.202;2023-05-07T00:40:59;48.10;;;25.90;;
30617;SDS011;17384;51.214;9.202;2023-05-07T00:43:25;47.33;;;26.70;;
30617;SDS011;17384;51.214;9.202;2023-05-07T00:45:50;41.53;;;26.27;;
30617;SDS011;17384;51.214;9.202;2023-05-07T00:48:16;45.03;;;27.92;;
30617;SDS011;17384;51.214;9.202;2023-05-07T00:50:42;48.25;;;27.23;;
30617;SDS011;17384;51.214;9.202;2023-05-07T00:53:08;40.80;;;26.60;;
30617;SDS011;17384;51.214;9.202;2023-05-07T00:55:34;43.40;;;27.05;;
30617;SDS011;17384;51.214;9.202;2023-05-07T00:58:00;39.30;;;26.45;;
30617;SDS011;17384;51.214;9.202;2023-05-07T01:00:26;43.58;;;28.48;;
30617;SDS011;17384;51.214;9.202;2023-05-07T01:02:51;41.90;;;26.30;;
30617;SDS011;17384;51.214;9.202;2023-05-07T01:05:18;43.75;;;28.23;;
30617;SDS011;17384;51.214;9.202;2023-05-07T01:07:45;44.38;;;28.58;;
30617;SDS011;17384;51.214;9.202;2023-05-07T01:10:11;46.92;;;28.77;;
30617;SDS011;17384;51.214;9.202;2023-05-07T01:12:37;44.80;;;28.83;;
30617;SDS011;17384;51.214;9.202;2023-05-07T01:15:05;46.75;;;29.10;;
30617;SDS011;17384;51.214;9.202;2023-05-07T01:17:33;48.78;;;30.50;;
30617;SDS011;17384;51.214;9.202;2023-05-07T01:19:59;43.58;;;28.90;;
30617;SDS011;17384;51.214;9.202;2023-05-07T01:22:32;48.90;;;30.20;;
30617;SDS011;17384;51.214;9.202;2023-05-07T01:25:02;48.95;;;31.45;;
30617;SDS011;17384;51.214;9.202;2023-05-07T01:27:28;55.08;;;30.27;;
30617;SDS011;17384;51.214;9.202;2023-05-07T01:29:54;52.78;;;30.52;;
30617;SDS011;17384;51.214;9.202;2023-05-07T01:32:21;51.40;;;30.70;;
30617;SDS011;17384;51.214;9.202;2023-05-07T01:34:52;51.15;;;31.95;;
30617;SDS011;17384;51.214;9.202;2023-05-07T01:37:20;59.22;;;32.72;;
30617;SDS011;17384;51.214;9.202;2023-05-07T01:39:46;48.30;;;31.00;;
30617;SDS011;17384;51.214;9.202;2023-05-07T01:42:13;58.13;;;32.30;;
30617;SDS011;17384;51.214;9.202;2023-05-07T01:44:38;50.88;;;32.38;;
30617;SDS011;17384;51.214;9.202;2023-05-07T01:47:04;55.97;;;31.00;;
30617;SDS011;17384;51.214;9.202;2023-05-07T01:49:31;54.65;;;33.85;;
30617;SDS011;17384;51.214;9.202;2023-05-07T01:51:57;55.22;;;33.10;;
30617;SDS011;17384;51.214;9.202;2023-05-07T01:54:26;54.42;;;32.08;;
30617;SDS011;17384;51.214;9.202;2023-05-07T01:56:58;55.70;;;32.03;;
30617;SDS011;17384;51.214;9.202;2023-05-07T01:59:24;57.50;;;35.42;;
30617;SDS011;17384;51.214;9.202;2023-05-07T02:01:50;55.78;;;32.83;;
30617;SDS011;17384;51.214;9.202;2023-05-07T02:04:15;62.53;;;33.45;;
30617;SDS011;17384;51.214;9.202;2023-05-07T02:06:41;53.42;;;32.58;;
30617;SDS011;17384;51.214;9.202;2023-05-07T02:09:06;53.78;;;33.70;;
30617;SDS011;17384;51.214;9.202;2023-05-07T02:11:33;54.33;;;32.60;;
30617;SDS011;17384;51.214;9.202;2023-05-07T02:13:59;55.88;;;31.58;;
30617;SDS011;17384;51.214;9.202;2023-05-07T02:16:24;57.10;;;33.03;;
30617;SDS011;17384;51.214;9.202;2023-05-07T02:18:50;55.70;;;31.33;;
30617;SDS011;17384;51.214;9.202;2023-05-07T02:21:16;53.33;;;31.85;;
30617;SDS011;17384;51.214;9.202;2023-05-07T02:23:41;54.35;;;32.75;;
30617;SDS011;17384;51.214;9.202;2023-05-07T02:26:07;52.28;;;31.83;;
30617;SDS011;17384;51.214;9.202;2023-05-07T02:28:32;54.50;;;32.42;;
30617;SDS011;17384;51.214;9.202;2023-05-07T02:31:01;48.95;;;29.88;;
30617;SDS011;17384;51.214;9.202;2023-05-07T02:33:27;50.80;;;29.50;;
30617;SDS011;17384;51.214;9.202;2023-05-07T02:35:53;52.53;;;31.30;;
30617;SDS011;17384;51.214;9.202;2023-05-07T02:38:18;48.70;;;30.35;;
30617;SDS011;17384;51.214;9.202;2023-05-07T02:40:44;46.95;;;30.23;;
30617;SDS011;17384;51.214;9.202;2023-05-07T02:43:09;50.38;;;31.95;;
30617;SDS011;17384;51.214;9.202;2023-05-07T02:45:35;51.95;;;32.45;;
30617;SDS011;17384;51.214;9.202;2023-05-07T02:48:02;47.13;;;31.27;;
30617;SDS011;17384;51.214;9.202;2023-05-07T02:50:28;48.03;;;29.98;;
30617;SDS011;17384;51.214;9.202;2023-05-07T02:52:54;48.72;;;29.77;;
30617;SDS011;17384;51.214;9.202;2023-05-07T02:55:20;47.78;;;31.35;;
30617;SDS011;17384;51.214;9.202;2023-05-07T02:57:45;51.50;;;31.33;;
30617;SDS011;17384;51.214;9.202;2023-05-07T03:00:11;47.78;;;30.48;;
30617;SDS011;17384;51.214;9.202;2023-05-07T03:02:38;46.50;;;30.20;;
30617;SDS011;17384;51.214;9.202;2023-05-07T03:05:04;49.70;;;31.08;;
30617;SDS011;17384;51.214;9.202;2023-05-07T03:07:30;51.33;;;30.80;;
30617;SDS011;17384;51.214;9.202;2023-05-07T03:09:55;46.67;;;30.35;;
30617;SDS011;17384;51.214;9.202;2023-05-07T03:12:21;47.00;;;29.52;;
30617;SDS011;17384;51.214;9.202;2023-05-07T03:14:46;46.63;;;28.80;;
30617;SDS011;17384;51.214;9.202;2023-05-07T03:17:12;47.70;;;30.00;;
30617;SDS011;17384;51.214;9.202;2023-05-07T03:19:37;48.35;;;29.63;;
30617;SDS011;17384;51.214;9.202;2023-05-07T03:22:02;49.42;;;30.42;;
30617;SDS011;17384;51.214;9.202;2023-05-07T03:24:28;50.83;;;30.42;;
30617;SDS011;17384;51.214;9.202;2023-05-07T03:26:53;57.83;;;31.65;;
30617;SDS011;17384;51.214;9.202;2023-05-07T03:29:19;52.83;;;31.65;;
30617;SDS011;17384;51.214;9.202;2023-05-07T03:31:44;49.75;;;31.63;;
30617;SDS011;17384;51.214;9.202;2023-05-07T03:34:10;53.60;;;31.92;;
30617;SDS011;17384;51.214;9.202;2023-05-07T03:36:36;54.08;;;33.13;;
30617;SDS011;17384;51.214;9.202;2023-05-07T03:39:01;60.38;;;34.63;;
30617;SDS011;17384;51.214;9.202;2023-05-07T03:41:27;54.55;;;33.33;;
30617;SDS011;17384;51.214;9.202;2023-05-07T03:43:52;59.58;;;34.08;;
30617;SDS011;17384;51.214;9.202;2023-05-07T03:46:18;57.40;;;34.50;;
30617;SDS011;17384;51.214;9.202;2023-05-07T03:48:43;53.85;;;32.03;;
30617;SDS011;17384;51.214;9.202;2023-05-07T03:51:08;56.45;;;33.85;;
30617;SDS011;17384;51.214;9.202;2023-05-07T03:53:34;57.45;;;32.30;;
30617;SDS011;17384;51.214;9.202;2023-05-07T03:55:59;59.10;;;35.00;;
30617;SDS011;17384;51.214;9.202;2023-05-07T03:58:25;59.83;;;34.05;;
30617;SDS011;17384;51.214;9.202;2023-05-07T04:00:50;59.70;;;35.70;;
30617;SDS011;17384;51.214;9.202;2023-05-07T04:03:16;56.10;;;34.58;;
30617;SDS011;17384;51.214;9.202;2023-05-07T04:05:41;61.88;;;37.30;;
30617;SDS011;17384;51.214;9.202;2023-05-07T04:08:07;63.92;;;35.80;;
30617;SDS011;17384;51.214;9.202;2023-05-07T04:10:32;57.80;;;34.63;;
30617;SDS011;17384;51.214;9.202;2023-05-07T04:12:58;68.15;;;37.55;;
30617;SDS011;17384;51.214;9.202;2023-05-07T04:15:23;67.40;;;38.55;;
30617;SDS011;17384;51.214;9.202;2023-05-07T04:17:49;61.03;;;37.25;;
30617;SDS011;17384;51.214;9.202;2023-05-07T04:20:15;71.70;;;38.78;;
30617;SDS011;17384;51.214;9.202;2023-05-07T04:22:41;66.88;;;36.97;;
30617;SDS011;17384;51.214;9.202;2023-05-07T04:25:07;69.40;;;38.78;;
30617;SDS011;17384;51.214;9.202;2023-05-07T04:27:36;63.35;;;36.35;;
30617;SDS011;17384;51.214;9.202;2023-05-07T04:30:02;68.72;;;38.78;;
30617;SDS011;17384;51.214;9.202;2023-05-07T04:32:29;79.90;;;38.15;;
30617;SDS011;17384;51.214;9.202;2023-05-07T04:34:58;65.70;;;37.92;;
30617;SDS011;17384;51.214;9.202;2023-05-07T04:37:23;73.95;;;37.92;;
30617;SDS011;17384;51.214;9.202;2023-05-07T04:39:50;70.57;;;38.13;;
30617;SDS011;17384;51.214;9.202;2023-05-07T04:42:15;70.28;;;38.20;;
30617;SDS011;17384;51.214;9.202;2023-05-07T04:44:42;74.07;;;38.22;;
30617;SDS011;17384;51.214;9.202;2023-05-07T04:47:08;73.30;;;40.63;;
30617;SDS011;17384;51.214;9.202;2023-05-07T04:49:33;71.55;;;38.10;;
30617;SDS011;17384;51.214;9.202;2023-05-07T04:51:59;72.47;;;39.60;;
30617;SDS011;17384;51.214;9.202;2023-05-07T04:54:24;79.85;;;40.25;;
30617;SDS011;17384;51.214;9.202;2023-05-07T04:56:50;72.47;;;40.42;;
30617;SDS011;17384;51.214;9.202;2023-05-07T04:59:15;73.55;;;38.38;;
30617;SDS011;17384;51.214;9.202;2023-05-07T05:01:41;69.72;;;37.80;;
30617;SDS011;17384;51.214;9.202;2023-05-07T05:04:06;72.35;;;38.47;;
30617;SDS011;17384;51.214;9.202;2023-05-07T05:06:32;69.07;;;39.00;;
30617;SDS011;17384;51.214;9.202;2023-05-07T05:08:57;69.00;;;39.08;;
30617;SDS011;17384;51.214;9.202;2023-05-07T05:11:23;69.32;;;37.55;;
30617;SDS011;17384;51.214;9.202;2023-05-07T05:13:48;69.97;;;37.33;;
30617;SDS011;17384;51.214;9.202;2023-05-07T05:16:14;73.47;;;39.63;;
30617;SDS011;17384;51.214;9.202;2023-05-07T05:18:40;67.97;;;36.70;;
30617;SDS011;17384;51.214;9.202;2023-05-07T05:21:06;69.90;;;37.50;;
30617;SDS011;17384;51.214;9.202;2023-05-07T05:23:31;72.70;;;37.95;;
30617;SDS011;17384;51.214;9.202;2023-05-07T05:25:57;72.10;;;38.80;;
30617;SDS011;17384;51.214;9.202;2023-05-07T05:28:23;77.97;;;38.53;;
30617;SDS011;17384;51.214;9.202;2023-05-07T05:30:49;67.22;;;37.40;;
30617;SDS011;17384;51.214;9.202;2023-05-07T05:33:15;73.85;;;38.38;;
30617;SDS011;17384;51.214;9.202;2023-05-07T05:35:40;69.82;;;37.65;;
30617;SDS011;17384;51.214;9.202;2023-05-07T05:38:06;67.18;;;35.60;;
30617;SDS011;17384;51.214;9.202;2023-05-07T05:40:31;66.15;;;35.50;;
30617;SDS011;17384;51.214;9.202;2023-05-07T05:42:58;70.15;;;36.60;;
30617;SDS011;17384;51.214;9.202;2023-05-07T05:45:24;65.82;;;34.92;;
30617;SDS011;17384;51.214;9.202;2023-05-07T05:47:50;59.72;;;32.47;;
30617;SDS011;17384;51.214;9.202;2023-05-07T05:56:59;60.97;;;31.90;;
30617;SDS011;17384;51.214;9.202;2023-05-07T05:59:24;51.65;;;29.83;;
30617;SDS011;17384;51.214;9.202;2023-05-07T06:01:50;59.63;;;31.02;;
30617;SDS011;17384;51.214;9.202;2023-05-07T06:04:16;55.22;;;30.08;;
30617;SDS011;17384;51.214;9.202;2023-05-07T06:06:41;49.35;;;28.70;;
30617;SDS011;17384;51.214;9.202;2023-05-07T06:09:06;53.60;;;29.30;;
30617;SDS011;17384;51.214;9.202;2023-05-07T06:11:32;58.80;;;30.83;;
30617;SDS011;17384;51.214;9.202;2023-05-07T06:13:57;51.50;;;28.50;;
30617;SDS011;17384;51.214;9.202;2023-05-07T06:16:24;53.90;;;29.15;;
30617;SDS011;17384;51.214;9.202;2023-05-07T06:18:50;49.60;;;28.25;;
30617;SDS011;17384;51.214;9.202;2023-05-07T06:21:15;50.88;;;28.45;;
30617;SDS011;17384;51.214;9.202;2023-05-07T06:23:41;52.60;;;29.33;;
30617;SDS011;17384;51.214;9.202;2023-05-07T06:26:06;54.15;;;29.65;;
30617;SDS011;17384;51.214;9.202;2023-05-07T06:28:32;53.55;;;29.25;;
30617;SDS011;17384;51.214;9.202;2023-05-07T06:31:16;54.20;;;29.38;;
30617;SDS011;17384;51.214;9.202;2023-05-07T06:33:45;51.45;;;28.55;;
30617;SDS011;17384;51.214;9.202;2023-05-07T06:36:11;50.28;;;27.83;;
30617;SDS011;17384;51.214;9.202;2023-05-07T06:38:36;51.42;;;28.55;;
30617;SDS011;17384;51.214;9.202;2023-05-07T06:41:02;55.90;;;29.42;;
30617;SDS011;17384;51.214;9.202;2023-05-07T06:43:27;53.20;;;28.30;;
30617;SDS011;17384;51.214;9.202;2023-05-07T06:45:53;50.30;;;28.13;;
30617;SDS011;17384;51.214;9.202;2023-05-07T06:48:18;56.30;;;27.05;;
30617;SDS011;17384;51.214;9.202;2023-05-07T06:50:44;52.53;;;27.77;;
30617;SDS011;17384;51.214;9.202;2023-05-07T06:53:09;47.83;;;28.25;;
30617;SDS011;17384;51.214;9.202;2023-05-07T06:55:35;50.58;;;27.63;;
30617;SDS011;17384;51.214;9.202;2023-05-07T06:58:00;54.33;;;28.58;;
30617;SDS011;17384;51.214;9.202;2023-05-07T07:00:29;47.92;;;25.95;;
30617;SDS011;17384;51.214;9.202;2023-05-07T07:02:54;51.40;;;28.25;;
30617;SDS011;17384;51.214;9.202;2023-05-07T07:05:20;48.10;;;27.35;;
30617;SDS011;17384;51.214;9.202;2023-05-07T07:07:46;47.92;;;25.00;;
30617;SDS011;17384;51.214;9.202;2023-05-07T07:10:20;51.60;;;26.73;;
30617;SDS011;17384;51.214;9.202;2023-05-07T07:12:46;46.80;;;24.98;;
30617;SDS011;17384;51.214;9.202;2023-05-07T07:15:13;49.20;;;25.90;;
30617;SDS011;17384;51.214;9.202;2023-05-07T07:17:38;45.67;;;25.27;;
30617;SDS011;17384;51.214;9.202;2023-05-07T07:20:04;50.72;;;26.85;;
30617;SDS011;17384;51.214;9.202;2023-05-07T07:22:30;48.15;;;24.08;;
30617;SDS011;17384;51.214;9.202;2023-05-07T07:24:56;54.10;;;27.83;;
30617;SDS011;17384;51.214;9.202;2023-05-07T07:27:21;50.05;;;26.58;;
30617;SDS011;17384;51.214;9.202;2023-05-07T07:29:47;48.38;;;26.20;;
30617;SDS011;17384;51.214;9.202;2023-05-07T07:32:12;49.03;;;24.75;;
30617;SDS011;17384;51.214;9.202;2023-05-07T07:37:03;48.15;;;24.70;;
30617;SDS011;17384;51.214;9.202;2023-05-07T07:39:31;46.35;;;24.90;;
30617;SDS011;17384;51.214;9.202;2023-05-07T07:41:57;50.00;;;25.52;;
30617;SDS011;17384;51.214;9.202;2023-05-07T07:44:22;48.47;;;24.95;;
30617;SDS011;17384;51.214;9.202;2023-05-07T07:46:48;44.92;;;24.45;;
30617;SDS011;17384;51.214;9.202;2023-05-07T07:49:14;48.65;;;26.30;;
30617;SDS011;17384;51.214;9.202;2023-05-07T07:51:39;44.95;;;24.38;;
30617;SDS011;17384;51.214;9.202;2023-05-07T07:54:05;47.63;;;25.33;;
30617;SDS011;17384;51.214;9.202;2023-05-07T07:56:31;50.05;;;23.90;;
30617;SDS011;17384;51.214;9.202;2023-05-07T07:59:01;44.70;;;22.42;;
30617;SDS011;17384;51.214;9.202;2023-05-07T08:01:26;34.72;;;19.73;;
30617;SDS011;17384;51.214;9.202;2023-05-07T08:03:53;37.92;;;20.25;;
30617;SDS011;17384;51.214;9.202;2023-05-07T08:06:19;36.88;;;20.80;;
30617;SDS011;17384;51.214;9.202;2023-05-07T08:08:44;39.20;;;21.63;;
30617;SDS011;17384;51.214;9.202;2023-05-07T08:11:10;38.28;;;21.02;;
30617;SDS011;17384;51.214;9.202;2023-05-07T08:13:36;39.05;;;20.38;;
30617;SDS011;17384;51.214;9.202;2023-05-07T08:16:03;37.88;;;19.55;;
30617;SDS011;17384;51.214;9.202;2023-05-07T08:18:29;35.35;;;20.15;;
30617;SDS011;17384;51.214;9.202;2023-05-07T08:20:54;35.67;;;19.40;;
30617;SDS011;17384;51.214;9.202;2023-05-07T08:23:21;33.03;;;20.15;;
30617;SDS011;17384;51.214;9.202;2023-05-07T08:25:47;32.47;;;19.88;;
30617;SDS011;17384;51.214;9.202;2023-05-07T08:28:13;32.50;;;19.05;;
30617;SDS011;17384;51.214;9.202;2023-05-07T08:30:39;33.78;;;20.00;;
30617;SDS011;17384;51.214;9.202;2023-05-07T08:33:05;39.38;;;20.30;;
30617;SDS011;17384;51.214;9.202;2023-05-07T08:35:30;33.35;;;18.35;;
30617;SDS011;17384;51.214;9.202;2023-05-07T08:37:56;40.97;;;18.75;;
30617;SDS011;17384;51.214;9.202;2023-05-07T08:40:22;35.33;;;19.40;;
30617;SDS011;17384;51.214;9.202;2023-05-07T08:42:52;35.47;;;18.38;;
30617;SDS011;17384;51.214;9.202;2023-05-07T08:45:18;32.88;;;18.95;;
30617;SDS011;17384;51.214;9.202;2023-05-07T08:47:50;32.90;;;17.60;;
30617;SDS011;17384;51.214;9.202;2023-05-07T08:50:21;27.30;;;15.57;;
30617;SDS011;17384;51.214;9.202;2023-05-07T08:52:47;26.33;;;16.02;;
30617;SDS011;17384;51.214;9.202;2023-05-07T08:55:13;25.40;;;16.45;;
30617;SDS011;17384;51.214;9.202;2023-05-07T08:57:40;26.23;;;14.98;;
30617;SDS011;17384;51.214;9.202;2023-05-07T09:00:06;29.70;;;16.48;;
30617;SDS011;17384;51.214;9.202;2023-05-07T09:02:34;28.48;;;16.33;;
30617;SDS011;17384;51.214;9.202;2023-05-07T09:05:01;28.30;;;16.10;;
30617;SDS011;17384;51.214;9.202;2023-05-07T09:07:28;25.20;;;16.63;;
30617;SDS011;17384;51.214;9.202;2023-05-07T09:09:56;28.00;;;15.77;;
30617;SDS011;17384;51.214;9.202;2023-05-07T09:12:23;27.80;;;16.45;;
30617;SDS011;17384;51.214;9.202;2023-05-07T09:14:49;28.08;;;16.92;;
30617;SDS011;17384;51.214;9.202;2023-05-07T09:17:16;31.88;;;15.73;;
30617;SDS011;17384;51.214;9.202;2023-05-07T09:19:43;27.00;;;15.00;;
30617;SDS011;17384;51.214;9.202;2023-05-07T09:22:13;23.70;;;15.50;;
30617;SDS011;17384;51.214;9.202;2023-05-07T09:24:47;28.27;;;15.70;;
30617;SDS011;17384;51.214;9.202;2023-05-07T09:27:14;23.20;;;14.55;;
30617;SDS011;17384;51.214;9.202;2023-05-07T09:29:41;22.17;;;14.80;;
30617;SDS011;17384;51.214;9.202;2023-05-07T09:32:08;22.15;;;13.05;;
30617;SDS011;17384;51.214;9.202;2023-05-07T09:34:34;23.05;;;13.48;;
30617;SDS011;17384;51.214;9.202;2023-05-07T09:37:01;19.63;;;12.98;;
30617;SDS011;17384;51.214;9.202;2023-05-07T09:39:48;18.17;;;12.45;;
30617;SDS011;17384;51.214;9.202;2023-05-07T09:42:15;20.33;;;12.80;;
30617;SDS011;17384;51.214;9.202;2023-05-07T09:44:43;17.95;;;12.73;;
30617;SDS011;17384;51.214;9.202;2023-05-07T09:47:12;20.00;;;12.85;;
30617;SDS011;17384;51.214;9.202;2023-05-07T09:49:45;21.25;;;12.93;;
30617;SDS011;17384;51.214;9.202;2023-05-07T09:52:13;17.10;;;11.10;;
30617;SDS011;17384;51.214;9.202;2023-05-07T09:54:40;15.60;;;10.82;;
30617;SDS011;17384;51.214;9.202;2023-05-07T09:57:10;16.45;;;9.90;;
30617;SDS011;17384;51.214;9.202;2023-05-07T09:59:37;18.75;;;11.57;;
30617;SDS011;17384;51.214;9.202;2023-05-07T10:02:07;16.40;;;10.18;;
30617;SDS011;17384;51.214;9.202;2023-05-07T10:04:35;14.18;;;10.20;;
30617;SDS011;17384;51.214;9.202;2023-05-07T10:07:01;14.98;;;9.23;;
30617;SDS011;17384;51.214;9.202;2023-05-07T10:09:28;12.40;;;9.13;;
30617;SDS011;17384;51.214;9.202;2023-05-07T10:11:54;13.52;;;9.68;;
30617;SDS011;17384;51.214;9.202;2023-05-07T10:14:21;10.90;;;8.98;;
30617;SDS011;17384;51.214;9.202;2023-05-07T10:16:46;16.38;;;8.88;;
30617;SDS011;17384;51.214;9.202;2023-05-07T10:19:13;13.63;;;9.48;;
30617;SDS011;17384;51.214;9.202;2023-05-07T10:21:44;13.98;;;9.13;;
30617;SDS011;17384;51.214;9.202;2023-05-07T10:24:20;12.52;;;8.35;;
30617;SDS011;17384;51.214;9.202;2023-05-07T10:32:48;13.35;;;7.57;;
30617;SDS011;17384;51.214;9.202;2023-05-07T10:35:20;15.07;;;7.55;;
30617;SDS011;17384;51.214;9.202;2023-05-07T10:40:15;10.40;;;7.55;;
30617;SDS011;17384;51.214;9.202;2023-05-07T10:43:01;12.52;;;7.13;;
30617;SDS011;17384;51.214;9.202;2023-05-07T10:45:30;10.05;;;6.55;;
30617;SDS011;17384;51.214;9.202;2023-05-07T10:48:12;10.90;;;6.78;;
30617;SDS011;17384;51.214;9.202;2023-05-07T10:50:40;7.40;;;6.13;;
30617;SDS011;17384;51.214;9.202;2023-05-07T10:55:50;7.95;;;5.38;;
30617;SDS011;17384;51.214;9.202;2023-05-07T10:58:36;10.00;;;5.97;;
30617;SDS011;17384;51.214;9.202;2023-05-07T11:01:02;11.23;;;6.97;;
30617;SDS011;17384;51.214;9.202;2023-05-07T11:03:28;9.90;;;6.18;;
30617;SDS011;17384;51.214;9.202;2023-05-07T11:06:13;16.08;;;7.03;;
30617;SDS011;17384;51.214;9.202;2023-05-07T11:11:17;6.30;;;5.57;;
30617;SDS011;17384;51.214;9.202;2023-05-07T11:13:46;8.85;;;5.90;;
30617;SDS011;17384;51.214;9.202;2023-05-07T11:16:16;7.68;;;6.25;;
30617;SDS011;17384;51.214;9.202;2023-05-07T11:18:54;8.10;;;5.78;;
30617;SDS011;17384;51.214;9.202;2023-05-07T11:21:37;7.18;;;5.05;;
30617;SDS011;17384;51.214;9.202;2023-05-07T11:24:04;6.53;;;5.20;;
30617;SDS011;17384;51.214;9.202;2023-05-07T11:26:31;9.48;;;6.25;;
30617;SDS011;17384;51.214;9.202;2023-05-07T11:29:11;8.05;;;4.93;;
30617;SDS011;17384;51.214;9.202;2023-05-07T11:31:51;7.18;;;5.30;;
30617;SDS011;17384;51.214;9.202;2023-05-07T11:34:24;8.13;;;6.22;;
30617;SDS011;17384;51.214;9.202;2023-05-07T11:36:51;9.45;;;6.80;;
30617;SDS011;17384;51.214;9.202;2023-05-07T11:39:24;8.95;;;6.70;;
30617;SDS011;17384;51.214;9.202;2023-05-07T11:41:50;8.57;;;6.03;;
30617;SDS011;17384;51.214;9.202;2023-05-07T11:44:15;6.68;;;5.35;;
30617;SDS011;17384;51.214;9.202;2023-05-07T11:46:42;10.77;;;4.80;;
30617;SDS011;17384;51.214;9.202;2023-05-07T11:49:09;8.40;;;5.22;;
30617;SDS011;17384;51.214;9.202;2023-05-07T11:51:35;6.85;;;4.50;;
30617;SDS011;17384;51.214;9.202;2023-05-07T11:54:03;8.70;;;5.07;;
30617;SDS011;17384;51.214;9.202;2023-05-07T11:56:28;6.43;;;4.40;;
30617;SDS011;17384;51.214;9.202;2023-05-07T11:58:54;7.75;;;4.85;;
30617;SDS011;17384;51.214;9.202;2023-05-07T12:01:19;10.82;;;5.10;;
30617;SDS011;17384;51.214;9.202;2023-05-07T12:03:45;6.45;;;4.70;;
30617;SDS011;17384;51.214;9.202;2023-05-07T12:06:11;5.88;;;4.55;;
30617;SDS011;17384;51.214;9.202;2023-05-07T12:08:38;5.88;;;4.70;;
30617;SDS011;17384;51.214;9.202;2023-05-07T12:11:08;5.93;;;4.80;;
30617;SDS011;17384;51.214;9.202;2023-05-07T12:13:37;7.75;;;5.53;;
30617;SDS011;17384;51.214;9.202;2023-05-07T12:16:03;9.20;;;4.93;;
30617;SDS011;17384;51.214;9.202;2023-05-07T12:18:30;8.30;;;5.20;;
30617;SDS011;17384;51.214;9.202;2023-05-07T12:20:56;6.72;;;5.60;;
30617;SDS011;17384;51.214;9.202;2023-05-07T12:23:22;10.88;;;5.38;;
30617;SDS011;17384;51.214;9.202;2023-05-07T12:25:48;8.60;;;5.70;;
30617;SDS011;17384;51.214;9.202;2023-05-07T12:28:14;10.43;;;5.68;;
30617;SDS011;17384;51.214;9.202;2023-05-07T12:30:45;6.90;;;4.72;;
30617;SDS011;17384;51.214;9.202;2023-05-07T12:33:12;11.82;;;5.93;;
30617;SDS011;17384;51.214;9.202;2023-05-07T12:35:41;7.00;;;4.80;;
30617;SDS011;17384;51.214;9.202;2023-05-07T12:38:08;6.95;;;5.47;;
30617;SDS011;17384;51.214;9.202;2023-05-07T12:40:43;7.40;;;5.43;;
30617;SDS011;17384;51.214;9.202;2023-05-07T12:43:20;7.43;;;4.63;;
30617;SDS011;17384;51.214;9.202;2023-05-07T12:45:49;10.98;;;6.00;;
30617;SDS011;17384;51.214;9.202;2023-05-07T12:48:16;6.72;;;5.45;;
30617;SDS011;17384;51.214;9.202;2023-05-07T12:50:42;7.43;;;5.60;;
30617;SDS011;17384;51.214;9.202;2023-05-07T12:53:10;8.85;;;6.07;;
30617;SDS011;17384;51.214;9.202;2023-05-07T12:55:47;8.65;;;5.57;;
30617;SDS011;17384;51.214;9.202;2023-05-07T12:58:17;9.38;;;5.60;;
30617;SDS011;17384;51.214;9.202;2023-05-07T13:00:46;9.98;;;6.18;;
30617;SDS011;17384;51.214;9.202;2023-05-07T13:03:20;10.90;;;5.40;;
30617;SDS011;17384;51.214;9.202;2023-05-07T13:05:47;7.28;;;5.28;;
30617;SDS011;17384;51.214;9.202;2023-05-07T13:08:22;9.23;;;5.88;;
30617;SDS011;17384;51.214;9.202;2023-05-07T13:10:51;8.18;;;5.20;;
30617;SDS011;17384;51.214;9.202;2023-05-07T13:13:18;12.50;;;6.25;;
30617;SDS011;17384;51.214;9.202;2023-05-07T13:15:44;8.43;;;5.85;;
30617;SDS011;17384;51.214;9.202;2023-05-07T13:18:09;8.50;;;5.90;;
30617;SDS011;17384;51.214;9.202;2023-05-07T13:20:36;10.20;;;5.85;;
30617;SDS011;17384;51.214;9.202;2023-05-07T13:23:01;9.15;;;6.00;;
30617;SDS011;17384;51.214;9.202;2023-05-07T13:25:29;11.57;;;6.28;;
30617;SDS011;17384;51.214;9.202;2023-05-07T13:27:54;10.85;;;6.38;;
30617;SDS011;17384;51.214;9.202;2023-05-07T13:30:21;10.95;;;7.78;;
30617;SDS011;17384;51.214;9.202;2023-05-07T13:32:47;8.02;;;6.30;;
30617;SDS011;17384;51.214;9.202;2023-05-07T13:35:15;14.02;;;7.15;;
30617;SDS011;17384;51.214;9.202;2023-05-07T13:37:41;7.63;;;6.38;;
30617;SDS011;17384;51.214;9.202;2023-05-07T13:40:07;10.80;;;7.03;;
30617;SDS011;17384;51.214;9.202;2023-05-07T13:42:33;14.55;;;7.20;;
30617;SDS011;17384;51.214;9.202;2023-05-07T13:44:58;10.27;;;7.10;;
30617;SDS011;17384;51.214;9.202;2023-05-07T13:47:24;14.15;;;7.72;;
30617;SDS011;17384;51.214;9.202;2023-05-07T13:49:49;9.98;;;7.32;;
30617;SDS011;17384;51.214;9.202;2023-05-07T13:52:15;13.45;;;7.13;;
30617;SDS011;17384;51.214;9.202;2023-05-07T13:54:41;9.05;;;7.18;;
30617;SDS011;17384;51.214;9.202;2023-05-07T13:57:07;10.30;;;6.90;;
30617;SDS011;17384;51.214;9.202;2023-05-07T13:59:32;11.68;;;7.25;;
30617;SDS011;17384;51.214;9.202;2023-05-07T14:01:58;9.63;;;7.63;;
30617;SDS011;17384;51.214;9.202;2023-05-07T14:04:24;9.75;;;6.38;;
30617;SDS011;17384;51.214;9.202;2023-05-07T14:06:49;15.18;;;6.35;;
30617;SDS011;17384;51.214;9.202;2023-05-07T14:09:15;8.13;;;5.88;;
30617;SDS011;17384;51.214;9.202;2023-05-07T14:11:42;9.95;;;6.57;;
30617;SDS011;17384;51.214;9.202;2023-05-07T14:14:07;6.78;;;6.05;;
30617;SDS011;17384;51.214;9.202;2023-05-07T14:16:36;9.80;;;6.15;;
30617;SDS011;17384;51.214;9.202;2023-05-07T14:19:02;7.53;;;5.63;;
30617;SDS011;17384;51.214;9.202;2023-05-07T14:21:28;9.48;;;6.20;;
30617;SDS011;17384;51.214;9.202;2023-05-07T14:23:55;8.90;;;7.05;;
30617;SDS011;17384;51.214;9.202;2023-05-07T14:26:21;10.77;;;6.55;;
30617;SDS011;17384;51.214;9.202;2023-05-07T14:28:48;8.10;;;5.20;;
30617;SDS011;17384;51.214;9.202;2023-05-07T14:31:13;6.22;;;5.25;;
30617;SDS011;17384;51.214;9.202;2023-05-07T14:33:39;7.82;;;5.32;;
30617;SDS011;17384;51.214;9.202;2023-05-07T14:36:04;9.40;;;5.70;;
30617;SDS011;17384;51.214;9.202;2023-05-07T14:38:30;9.82;;;5.25;;
30617;SDS011;17384;51.214;9.202;2023-05-07T14:40:57;8.85;;;5.35;;
30617;SDS011;17384;51.214;9.202;2023-05-07T14:43:23;7.60;;;5.70;;
30617;SDS011;17384;51.214;9.202;2023-05-07T14:45:48;7.93;;;5.28;;
30617;SDS011;17384;51.214;9.202;2023-05-07T14:48:15;8.60;;;6.63;;
30617;SDS011;17384;51.214;9.202;2023-05-07T14:50:43;10.75;;;6.30;;